sensor_id;sensor_type;location;lat;lon;timestamp;pressure;altitude;pressure_sealevel;temperature;humidity
70229;BME280;57617;51.988;5.854;2023-07-02T00:00:28;100181.66;;;21.57;61.06
70229;BME280;57617;51.988;5.854;2023-07-02T00:02:53;100183.13;;;21.54;61.08
70229;BME280;57617;51.988;5.854;2023-07-02T00:05:19;100187.88;;;21.54;61.39
70229;BME280;57617;51.988;5.854;2023-07-02T00:07:44;100187.69;;;21.50;61.38
70229;BME280;57617;51.988;5.854;2023-07-02T00:10:09;100194.03;;;21.51;61.48
70229;BME280;57617;51.988;5.854;2023-07-02T00:12:36;100122.41;;;21.12;61.54
70229;BME280;57617;51.988;5.854;2023-07-02T00:15:02;100186.72;;;21.55;61.54
70229;BME280;57617;51.988;5.854;2023-07-02T00:17:27;100180.06;;;21.56;61.54
70229;BME280;57617;51.988;5.854;2023-07-02T00:19:53;100164.94;;;21.53;61.64
70229;BME280;57617;51.988;5.854;2023-07-02T00:22:18;100175.34;;;21.56;61.53
70229;BME280;57617;51.988;5.854;2023-07-02T00:24:43;100171.44;;;21.57;61.68
70229;BME280;57617;51.988;5.854;2023-07-02T00:27:09;100176.13;;;21.57;61.64
70229;BME280;57617;51.988;5.854;2023-07-02T00:29:34;100177.75;;;21.58;61.61
70229;BME280;57617;51.988;5.854;2023-07-02T00:31:59;100177.75;;;21.58;61.52
70229;BME280;57617;51.988;5.854;2023-07-02T00:34:25;100169.81;;;21.56;61.60
70229;BME280;57617;51.988;5.854;2023-07-02T00:36:51;100177.28;;;21.56;61.63
70229;BME280;57617;51.988;5.854;2023-07-02T00:39:17;100196.63;;;21.56;61.68
70229;BME280;57617;51.988;5.854;2023-07-02T00:41:43;100201.69;;;21.54;61.77
70229;BME280;57617;51.988;5.854;2023-07-02T00:44:12;100214.53;;;21.50;61.45
70229;BME280;57617;51.988;5.854;2023-07-02T00:46:37;100224.28;;;21.47;61.24
70229;BME280;57617;51.988;5.854;2023-07-02T00:49:04;100224.47;;;21.42;60.90
70229;BME280;57617;51.988;5.854;2023-07-02T00:51:30;100234.06;;;21.36;60.85
70229;BME280;57617;51.988;5.854;2023-07-02T00:53:57;100225.94;;;21.31;60.38
70229;BME280;57617;51.988;5.854;2023-07-02T00:56:24;100237.16;;;21.26;60.30
70229;BME280;57617;51.988;5.854;2023-07-02T00:58:52;100232.09;;;21.20;60.23
70229;BME280;57617;51.988;5.854;2023-07-02T01:01:20;100226.75;;;21.15;59.98
70229;BME280;57617;51.988;5.854;2023-07-02T01:03:59;100226.91;;;21.01;60.18
70229;BME280;57617;51.988;5.854;2023-07-02T01:06:35;100223.00;;;20.94;60.11
70229;BME280;57617;51.988;5.854;2023-07-02T01:09:03;100230.41;;;20.85;60.33
70229;BME280;57617;51.988;5.854;2023-07-02T01:11:50;100229.41;;;20.81;60.23
70229;BME280;57617;51.988;5.854;2023-07-02T01:16:50;100227.94;;;20.75;60.46
70229;BME280;57617;51.988;5.854;2023-07-02T01:19:30;100233.63;;;20.78;60.79
70229;BME280;57617;51.988;5.854;2023-07-02T01:21:57;100229.25;;;20.77;60.54
70229;BME280;57617;51.988;5.854;2023-07-02T01:24:23;100227.63;;;20.76;60.55
70229;BME280;57617;51.988;5.854;2023-07-02T01:26:48;100235.28;;;20.79;60.82
70229;BME280;57617;51.988;5.854;2023-07-02T01:29:18;100233.84;;;20.82;60.58
70229;BME280;57617;51.988;5.854;2023-07-02T01:31:44;100234.31;;;20.84;60.63
70229;BME280;57617;51.988;5.854;2023-07-02T01:34:10;100236.44;;;20.87;60.44
70229;BME280;57617;51.988;5.854;2023-07-02T01:36:36;100251.03;;;20.87;60.40
70229;BME280;57617;51.988;5.854;2023-07-02T01:39:02;100241.44;;;20.85;60.30
70229;BME280;57617;51.988;5.854;2023-07-02T01:41:28;100240.66;;;20.84;60.24
70229;BME280;57617;51.988;5.854;2023-07-02T01:43:53;100249.25;;;20.83;60.06
70229;BME280;57617;51.988;5.854;2023-07-02T01:46:18;100243.72;;;20.83;60.16
70229;BME280;57617;51.988;5.854;2023-07-02T01:48:44;100245.19;;;20.80;60.03
70229;BME280;57617;51.988;5.854;2023-07-02T01:51:09;100247.13;;;20.80;59.87
70229;BME280;57617;51.988;5.854;2023-07-02T01:53:34;100247.44;;;20.78;59.91
70229;BME280;57617;51.988;5.854;2023-07-02T01:56:00;100258.47;;;20.78;59.54
70229;BME280;57617;51.988;5.854;2023-07-02T01:58:25;100244.69;;;20.78;59.78
70229;BME280;57617;51.988;5.854;2023-07-02T02:00:50;100250.53;;;20.77;59.10
70229;BME280;57617;51.988;5.854;2023-07-02T02:03:16;100240.97;;;20.74;59.67
70229;BME280;57617;51.988;5.854;2023-07-02T02:05:41;100244.34;;;20.71;59.67
70229;BME280;57617;51.988;5.854;2023-07-02T02:08:06;100250.69;;;20.72;59.58
70229;BME280;57617;51.988;5.854;2023-07-02T02:10:32;100256.03;;;20.68;59.58
70229;BME280;57617;51.988;5.854;2023-07-02T02:12:57;100256.16;;;20.63;59.72
70229;BME280;57617;51.988;5.854;2023-07-02T02:15:22;100255.16;;;20.51;59.69
70229;BME280;57617;51.988;5.854;2023-07-02T02:17:48;100258.09;;;20.46;59.97
70229;BME280;57617;51.988;5.854;2023-07-02T02:20:13;100263.09;;;20.44;60.22
70229;BME280;57617;51.988;5.854;2023-07-02T02:22:38;100256.09;;;20.38;60.26
70229;BME280;57617;51.988;5.854;2023-07-02T02:25:04;100250.41;;;20.34;60.44
70229;BME280;57617;51.988;5.854;2023-07-02T02:27:30;100256.41;;;20.36;60.39
70229;BME280;57617;51.988;5.854;2023-07-02T02:29:55;100263.38;;;20.34;60.24
70229;BME280;57617;51.988;5.854;2023-07-02T02:32:21;100271.47;;;20.30;60.41
70229;BME280;57617;51.988;5.854;2023-07-02T02:34:47;100254.38;;;20.20;60.47
70229;BME280;57617;51.988;5.854;2023-07-02T02:37:12;100257.66;;;20.22;60.58
70229;BME280;57617;51.988;5.854;2023-07-02T02:39:37;100263.66;;;20.24;60.62
70229;BME280;57617;51.988;5.854;2023-07-02T02:42:03;100259.75;;;20.25;60.57
70229;BME280;57617;51.988;5.854;2023-07-02T02:44:29;100251.81;;;20.23;60.46
70229;BME280;57617;51.988;5.854;2023-07-02T02:46:54;100264.47;;;20.24;60.56
70229;BME280;57617;51.988;5.854;2023-07-02T02:49:20;100264.66;;;20.28;60.44
70229;BME280;57617;51.988;5.854;2023-07-02T02:51:45;100265.47;;;20.28;60.23
70229;BME280;57617;51.988;5.854;2023-07-02T02:54:10;100262.50;;;20.25;60.58
70229;BME280;57617;51.988;5.854;2023-07-02T02:56:36;100262.50;;;20.25;60.30
70229;BME280;57617;51.988;5.854;2023-07-02T02:59:01;100256.50;;;20.23;60.29
70229;BME280;57617;51.988;5.854;2023-07-02T03:01:27;100262.78;;;20.15;60.37
70229;BME280;57617;51.988;5.854;2023-07-02T03:03:55;100267.53;;;20.23;60.27
70229;BME280;57617;51.988;5.854;2023-07-02T03:06:20;100275.50;;;20.24;60.27
70229;BME280;57617;51.988;5.854;2023-07-02T03:08:45;100276.31;;;20.25;60.17
70229;BME280;57617;51.988;5.854;2023-07-02T03:11:11;100281.34;;;20.23;60.07
70229;BME280;57617;51.988;5.854;2023-07-02T03:13:36;100292.06;;;20.24;60.04
70229;BME280;57617;51.988;5.854;2023-07-02T03:16:02;100287.16;;;20.21;60.12
70229;BME280;57617;51.988;5.854;2023-07-02T03:18:27;100288.00;;;20.22;59.97
70229;BME280;57617;51.988;5.854;2023-07-02T03:20:52;100290.09;;;20.25;59.85
70229;BME280;57617;51.988;5.854;2023-07-02T03:23:17;100292.84;;;20.25;59.72
70229;BME280;57617;51.988;5.854;2023-07-02T03:25:43;100291.22;;;20.24;59.84
70229;BME280;57617;51.988;5.854;2023-07-02T03:28:08;100301.47;;;20.23;59.49
70229;BME280;57617;51.988;5.854;2023-07-02T03:30:33;100300.66;;;20.23;59.51
70229;BME280;57617;51.988;5.854;2023-07-02T03:32:59;100301.25;;;20.20;59.40
70229;BME280;57617;51.988;5.854;2023-07-02T03:35:24;100307.59;;;20.20;59.46
70229;BME280;57617;51.988;5.854;2023-07-02T03:37:49;100311.19;;;20.21;59.43
70229;BME280;57617;51.988;5.854;2023-07-02T03:40:15;100304.03;;;20.20;59.73
70229;BME280;57617;51.988;5.854;2023-07-02T03:42:40;100302.41;;;20.19;59.71
70229;BME280;57617;51.988;5.854;2023-07-02T03:45:06;100308.91;;;20.23;59.44
70229;BME280;57617;51.988;5.854;2023-07-02T03:47:31;100303.72;;;20.21;59.53
70229;BME280;57617;51.988;5.854;2023-07-02T03:49:56;100308.44;;;20.21;59.47
70229;BME280;57617;51.988;5.854;2023-07-02T03:52:22;100310.53;;;20.24;59.41
70229;BME280;57617;51.988;5.854;2023-07-02T03:54:47;100308.44;;;20.21;59.23
70229;BME280;57617;51.988;5.854;2023-07-02T03:57:12;100315.56;;;20.22;59.44
70229;BME280;57617;51.988;5.854;2023-07-02T03:59:38;100315.56;;;20.22;59.23
70229;BME280;57617;51.988;5.854;2023-07-02T04:02:03;100315.41;;;20.18;59.18
70229;BME280;57617;51.988;5.854;2023-07-02T04:04:29;100320.09;;;20.18;59.32
70229;BME280;57617;51.988;5.854;2023-07-02T04:06:54;100323.31;;;20.20;59.11
70229;BME280;57617;51.988;5.854;2023-07-02T04:09:19;100321.53;;;20.15;59.06
70229;BME280;57617;51.988;5.854;2023-07-02T04:11:45;100330.13;;;20.14;59.08
70229;BME280;57617;51.988;5.854;2023-07-02T04:14:10;100327.88;;;20.16;58.95
70229;BME280;57617;51.988;5.854;2023-07-02T04:16:35;100334.00;;;20.13;58.77
70229;BME280;57617;51.988;5.854;2023-07-02T04:19:00;100323.59;;;20.10;58.63
70229;BME280;57617;51.988;5.854;2023-07-02T04:21:26;100331.38;;;20.08;58.76
70229;BME280;57617;51.988;5.854;2023-07-02T04:23:52;100332.47;;;20.07;58.75
70229;BME280;57617;51.988;5.854;2023-07-02T04:26:17;100340.47;;;20.08;58.64
70229;BME280;57617;51.988;5.854;2023-07-02T04:28:43;100336.69;;;20.04;58.53
70229;BME280;57617;51.988;5.854;2023-07-02T04:31:08;100334.75;;;20.05;58.33
70229;BME280;57617;51.988;5.854;2023-07-02T04:33:34;100336.38;;;20.06;58.48
70229;BME280;57617;51.988;5.854;2023-07-02T04:36:02;100335.84;;;20.04;58.33
70229;BME280;57617;51.988;5.854;2023-07-02T04:38:27;100343.03;;;20.05;58.40
70229;BME280;57617;51.988;5.854;2023-07-02T04:40:53;100338.44;;;20.00;58.15
70229;BME280;57617;51.988;5.854;2023-07-02T04:43:18;100343.34;;;20.03;57.99
70229;BME280;57617;51.988;5.854;2023-07-02T04:45:44;100342.03;;;20.01;57.93
70229;BME280;57617;51.988;5.854;2023-07-02T04:48:09;100344.25;;;19.99;57.82
70229;BME280;57617;51.988;5.854;2023-07-02T04:50:35;100342.63;;;19.98;58.09
70229;BME280;57617;51.988;5.854;2023-07-02T04:53:00;100342.63;;;19.98;58.00
70229;BME280;57617;51.988;5.854;2023-07-02T04:55:25;100343.47;;;19.98;57.83
70229;BME280;57617;51.988;5.854;2023-07-02T04:57:51;100345.38;;;19.98;57.77
70229;BME280;57617;51.988;5.854;2023-07-02T05:00:16;100345.56;;;20.01;57.78
70229;BME280;57617;51.988;5.854;2023-07-02T05:02:42;100348.84;;;20.03;57.85
70229;BME280;57617;51.988;5.854;2023-07-02T05:05:07;100354.84;;;20.05;57.53
70229;BME280;57617;51.988;5.854;2023-07-02T05:07:33;100353.72;;;20.06;57.40
70229;BME280;57617;51.988;5.854;2023-07-02T05:09:58;100356.47;;;20.06;57.54
70229;BME280;57617;51.988;5.854;2023-07-02T05:12:23;100356.81;;;20.05;57.50
70229;BME280;57617;51.988;5.854;2023-07-02T05:14:49;100355.81;;;20.01;57.47
70229;BME280;57617;51.988;5.854;2023-07-02T05:17:14;100344.59;;;19.97;57.39
70229;BME280;57617;51.988;5.854;2023-07-02T05:19:40;100366.31;;;19.99;57.19
70229;BME280;57617;51.988;5.854;2023-07-02T05:22:06;100366.13;;;19.95;56.97
70229;BME280;57617;51.988;5.854;2023-07-02T05:24:32;100367.13;;;19.99;56.37
70229;BME280;57617;51.988;5.854;2023-07-02T05:26:57;100371.34;;;19.97;57.07
70229;BME280;57617;51.988;5.854;2023-07-02T05:29:22;100369.41;;;19.97;56.94
70229;BME280;57617;51.988;5.854;2023-07-02T05:31:47;100382.84;;;19.99;56.68
70229;BME280;57617;51.988;5.854;2023-07-02T05:34:13;100384.00;;;19.98;56.77
70229;BME280;57617;51.988;5.854;2023-07-02T05:36:38;100384.28;;;19.96;56.71
70229;BME280;57617;51.988;5.854;2023-07-02T05:39:04;100379.50;;;20.02;56.40
70229;BME280;57617;51.988;5.854;2023-07-02T05:41:29;100375.28;;;20.04;56.32
70229;BME280;57617;51.988;5.854;2023-07-02T05:43:59;100383.25;;;20.06;56.07
70229;BME280;57617;51.988;5.854;2023-07-02T05:46:25;100375.50;;;20.08;56.31
70229;BME280;57617;51.988;5.854;2023-07-02T05:48:50;100389.06;;;20.04;56.09
70229;BME280;57617;51.988;5.854;2023-07-02T05:51:22;100389.28;;;20.08;55.96
70229;BME280;57617;51.988;5.854;2023-07-02T05:53:47;100400.31;;;20.08;56.04
70229;BME280;57617;51.988;5.854;2023-07-02T05:56:13;100404.88;;;20.12;55.91
70229;BME280;57617;51.988;5.854;2023-07-02T05:58:38;100403.66;;;20.18;55.81
70229;BME280;57617;51.988;5.854;2023-07-02T06:01:04;100401.88;;;20.22;55.76
70229;BME280;57617;51.988;5.854;2023-07-02T06:03:31;100396.47;;;20.17;55.61
70229;BME280;57617;51.988;5.854;2023-07-02T06:05:56;100396.81;;;20.16;55.96
70229;BME280;57617;51.988;5.854;2023-07-02T06:08:21;100408.66;;;20.16;55.22
70229;BME280;57617;51.988;5.854;2023-07-02T06:10:47;100419.06;;;20.19;55.40
70229;BME280;57617;51.988;5.854;2023-07-02T06:13:13;100400.69;;;20.15;55.30
70229;BME280;57617;51.988;5.854;2023-07-02T06:15:39;100412.13;;;20.22;55.22
70229;BME280;57617;51.988;5.854;2023-07-02T06:18:04;100417.81;;;20.25;55.16
70229;BME280;57617;51.988;5.854;2023-07-02T06:20:29;100420.25;;;20.27;54.54
70229;BME280;57617;51.988;5.854;2023-07-02T06:22:55;100426.56;;;20.27;55.14
70229;BME280;57617;51.988;5.854;2023-07-02T06:25:20;100419.97;;;20.28;54.76
70229;BME280;57617;51.988;5.854;2023-07-02T06:27:46;100418.50;;;20.31;54.53
70229;BME280;57617;51.988;5.854;2023-07-02T06:30:11;100419.31;;;20.31;54.72
70229;BME280;57617;51.988;5.854;2023-07-02T06:32:37;100422.25;;;20.35;54.71
70229;BME280;57617;51.988;5.854;2023-07-02T06:35:03;100426.66;;;20.36;54.25
70229;BME280;57617;51.988;5.854;2023-07-02T06:37:28;100427.97;;;20.38;54.54
70229;BME280;57617;51.988;5.854;2023-07-02T06:39:53;100438.69;;;20.40;54.29
70229;BME280;57617;51.988;5.854;2023-07-02T06:42:19;100435.78;;;20.45;54.33
70229;BME280;57617;51.988;5.854;2023-07-02T06:44:44;100439.88;;;20.47;54.00
70229;BME280;57617;51.988;5.854;2023-07-02T06:47:09;100427.38;;;20.50;53.96
70229;BME280;57617;51.988;5.854;2023-07-02T06:49:36;100438.47;;;20.58;54.08
70229;BME280;57617;51.988;5.854;2023-07-02T06:52:01;100439.16;;;20.64;53.96
70229;BME280;57617;51.988;5.854;2023-07-02T06:54:26;100441.91;;;20.64;53.52
70229;BME280;57617;51.988;5.854;2023-07-02T06:56:52;100442.22;;;20.62;53.48
70229;BME280;57617;51.988;5.854;2023-07-02T06:59:21;100448.19;;;20.56;52.80
70229;BME280;57617;51.988;5.854;2023-07-02T07:01:47;100451.66;;;20.61;53.22
70229;BME280;57617;51.988;5.854;2023-07-02T07:04:12;100450.19;;;20.64;52.81
70229;BME280;57617;51.988;5.854;2023-07-02T07:06:38;100464.00;;;20.64;52.88
70229;BME280;57617;51.988;5.854;2023-07-02T07:09:03;100476.53;;;20.70;52.38
70229;BME280;57617;51.988;5.854;2023-07-02T07:11:29;100476.06;;;20.68;52.44
70229;BME280;57617;51.988;5.854;2023-07-02T07:13:54;100466.03;;;20.72;52.38
70229;BME280;57617;51.988;5.854;2023-07-02T07:16:20;100472.50;;;20.76;52.53
70229;BME280;57617;51.988;5.854;2023-07-02T07:18:45;100479.34;;;20.78;52.16
70229;BME280;57617;51.988;5.854;2023-07-02T07:21:11;100471.06;;;20.78;52.32
70229;BME280;57617;51.988;5.854;2023-07-02T07:23:36;100475.63;;;20.74;52.20
70229;BME280;57617;51.988;5.854;2023-07-02T07:26:01;100483.69;;;20.71;52.12
70229;BME280;57617;51.988;5.854;2023-07-02T07:28:27;100478.38;;;20.74;52.08
70229;BME280;57617;51.988;5.854;2023-07-02T07:30:52;100487.97;;;20.77;52.04
70229;BME280;57617;51.988;5.854;2023-07-02T07:33:17;100489.59;;;20.78;52.00
70229;BME280;57617;51.988;5.854;2023-07-02T07:35:42;100494.97;;;20.83;52.10
70229;BME280;57617;51.988;5.854;2023-07-02T07:38:08;100489.63;;;20.86;51.88
70229;BME280;57617;51.988;5.854;2023-07-02T07:40:33;100489.34;;;20.88;51.56
70229;BME280;57617;51.988;5.854;2023-07-02T07:42:58;100488.03;;;20.85;51.71
70229;BME280;57617;51.988;5.854;2023-07-02T07:45:25;100493.22;;;20.87;51.98
70229;BME280;57617;51.988;5.854;2023-07-02T07:47:50;100496.69;;;20.92;51.83
70229;BME280;57617;51.988;5.854;2023-07-02T07:50:16;100488.28;;;20.97;51.96
70229;BME280;57617;51.988;5.854;2023-07-02T07:52:42;100494.09;;;20.96;51.94
70229;BME280;57617;51.988;5.854;2023-07-02T07:55:08;100494.09;;;20.96;51.80
70229;BME280;57617;51.988;5.854;2023-07-02T07:57:35;100497.69;;;20.96;52.06
70229;BME280;57617;51.988;5.854;2023-07-02T08:00:02;100512.16;;;21.02;51.35
70229;BME280;57617;51.988;5.854;2023-07-02T08:02:29;100494.94;;;20.96;51.64
70229;BME280;57617;51.988;5.854;2023-07-02T08:04:54;100501.63;;;21.04;51.71
70229;BME280;57617;51.988;5.854;2023-07-02T08:07:20;100503.13;;;21.10;51.95
70229;BME280;57617;51.988;5.854;2023-07-02T08:09:45;100506.38;;;21.12;51.70
70229;BME280;57617;51.988;5.854;2023-07-02T08:12:10;100506.38;;;21.12;51.88
70229;BME280;57617;51.988;5.854;2023-07-02T08:14:35;100497.91;;;21.08;51.39
70229;BME280;57617;51.988;5.854;2023-07-02T08:17:01;100511.28;;;21.15;51.13
70229;BME280;57617;51.988;5.854;2023-07-02T08:19:26;100509.50;;;21.19;50.55
70229;BME280;57617;51.988;5.854;2023-07-02T08:21:52;100514.50;;;21.17;50.81
70229;BME280;57617;51.988;5.854;2023-07-02T08:24:17;100507.75;;;21.23;49.77
70229;BME280;57617;51.988;5.854;2023-07-02T08:26:42;100512.00;;;21.29;49.67
70229;BME280;57617;51.988;5.854;2023-07-02T08:29:09;100504.69;;;21.33;49.25
70229;BME280;57617;51.988;5.854;2023-07-02T08:31:35;100515.13;;;21.44;48.90
70229;BME280;57617;51.988;5.854;2023-07-02T08:34:00;100523.09;;;21.46;48.31
70229;BME280;57617;51.988;5.854;2023-07-02T08:36:25;100523.09;;;21.46;47.98
70229;BME280;57617;51.988;5.854;2023-07-02T08:38:51;100524.88;;;21.42;47.56
70229;BME280;57617;51.988;5.854;2023-07-02T08:41:16;100529.25;;;21.43;46.32
70229;BME280;57617;51.988;5.854;2023-07-02T08:43:42;100533.16;;;21.42;45.91
70229;BME280;57617;51.988;5.854;2023-07-02T08:46:08;100528.91;;;21.36;46.44
70229;BME280;57617;51.988;5.854;2023-07-02T08:48:35;100535.31;;;21.45;46.71
70229;BME280;57617;51.988;5.854;2023-07-02T08:51:02;100536.94;;;21.46;46.82
70229;BME280;57617;51.988;5.854;2023-07-02T08:53:27;100535.66;;;21.60;47.08
70229;BME280;57617;51.988;5.854;2023-07-02T08:55:58;100538.72;;;21.81;47.14
70229;BME280;57617;51.988;5.854;2023-07-02T08:58:24;100536.97;;;22.02;46.96
70229;BME280;57617;51.988;5.854;2023-07-02T09:01:12;100539.25;;;22.17;45.13
70229;BME280;57617;51.988;5.854;2023-07-02T09:03:38;100534.03;;;22.15;45.62
70229;BME280;57617;51.988;5.854;2023-07-02T09:06:08;100540.41;;;22.16;46.00
70229;BME280;57617;51.988;5.854;2023-07-02T09:08:34;100542.66;;;22.05;45.94
70229;BME280;57617;51.988;5.854;2023-07-02T09:13:48;100546.03;;;21.94;45.45
70229;BME280;57617;51.988;5.854;2023-07-02T09:21:37;100544.97;;;22.37;45.00
70229;BME280;57617;51.988;5.854;2023-07-02T09:24:18;100546.94;;;22.37;44.22
70229;BME280;57617;51.988;5.854;2023-07-02T09:26:51;100560.63;;;22.33;42.08
70229;BME280;57617;51.988;5.854;2023-07-02T09:29:24;100546.31;;;22.48;42.79
70229;BME280;57617;51.988;5.854;2023-07-02T09:31:50;100547.94;;;22.66;43.69
70229;BME280;57617;51.988;5.854;2023-07-02T09:34:16;100523.31;;;22.73;43.07
70229;BME280;57617;51.988;5.854;2023-07-02T09:36:41;100555.72;;;22.90;43.37
70229;BME280;57617;51.988;5.854;2023-07-02T09:39:20;100548.88;;;22.87;42.04
70229;BME280;57617;51.988;5.854;2023-07-02T09:41:50;100537.47;;;22.89;41.07
70229;BME280;57617;51.988;5.854;2023-07-02T09:44:17;100540.72;;;23.08;42.79
70229;BME280;57617;51.988;5.854;2023-07-02T09:47:03;100550.28;;;23.27;41.25
70229;BME280;57617;51.988;5.854;2023-07-02T09:49:32;100535.94;;;23.34;40.37
70229;BME280;57617;51.988;5.854;2023-07-02T09:52:00;100542.72;;;23.45;39.71
70229;BME280;57617;51.988;5.854;2023-07-02T09:54:27;100542.50;;;23.58;38.26
70229;BME280;57617;51.988;5.854;2023-07-02T09:56:52;100537.44;;;23.60;39.35
70229;BME280;57617;51.988;5.854;2023-07-02T09:59:18;100544.25;;;23.63;39.26
70229;BME280;57617;51.988;5.854;2023-07-02T10:01:44;100545.81;;;23.81;39.21
70229;BME280;57617;51.988;5.854;2023-07-02T10:04:19;100542.69;;;23.91;37.73
70229;BME280;57617;51.988;5.854;2023-07-02T10:06:50;100547.84;;;24.01;37.88
70229;BME280;57617;51.988;5.854;2023-07-02T10:09:19;100541.41;;;24.09;37.47
70229;BME280;57617;51.988;5.854;2023-07-02T10:11:45;100553.63;;;24.16;37.30
70229;BME280;57617;51.988;5.854;2023-07-02T10:14:10;100554.72;;;24.24;37.53
70229;BME280;57617;51.988;5.854;2023-07-02T10:16:52;100559.66;;;24.39;34.64
70229;BME280;57617;51.988;5.854;2023-07-02T10:19:18;100547.97;;;24.33;35.75
70229;BME280;57617;51.988;5.854;2023-07-02T10:21:44;100559.72;;;24.59;36.46
70229;BME280;57617;51.988;5.854;2023-07-02T10:26:36;100555.53;;;24.45;35.64
70229;BME280;57617;51.988;5.854;2023-07-02T10:29:02;100550.25;;;24.52;36.81
70229;BME280;57617;51.988;5.854;2023-07-02T10:31:28;100554.53;;;24.70;36.88
70229;BME280;57617;51.988;5.854;2023-07-02T10:33:53;100549.97;;;24.86;36.79
70229;BME280;57617;51.988;5.854;2023-07-02T10:36:23;100553.06;;;25.05;36.36
70229;BME280;57617;51.988;5.854;2023-07-02T10:38:50;100561.59;;;25.00;36.26
70229;BME280;57617;51.988;5.854;2023-07-02T10:41:29;100560.06;;;24.90;34.83
70229;BME280;57617;51.988;5.854;2023-07-02T10:44:08;100556.22;;;24.83;33.84
70229;BME280;57617;51.988;5.854;2023-07-02T10:46:34;100556.66;;;24.73;35.41
70229;BME280;57617;51.988;5.854;2023-07-02T10:48:59;100556.59;;;24.52;35.50
70229;BME280;57617;51.988;5.854;2023-07-02T10:51:25;100560.88;;;24.50;35.44
70229;BME280;57617;51.988;5.854;2023-07-02T10:54:00;100568.03;;;24.59;34.30
70229;BME280;57617;51.988;5.854;2023-07-02T10:56:27;100567.22;;;24.59;35.62
70229;BME280;57617;51.988;5.854;2023-07-02T10:58:53;100559.25;;;24.49;35.22
70229;BME280;57617;51.988;5.854;2023-07-02T11:01:25;100558.72;;;24.55;35.02
70229;BME280;57617;51.988;5.854;2023-07-02T11:04:01;100565.44;;;24.54;34.07
70229;BME280;57617;51.988;5.854;2023-07-02T11:06:28;100563.44;;;24.55;35.02
70229;BME280;57617;51.988;5.854;2023-07-02T11:08:54;100574.88;;;24.62;35.25
70229;BME280;57617;51.988;5.854;2023-07-02T11:11:21;100578.03;;;24.72;35.04
70229;BME280;57617;51.988;5.854;2023-07-02T11:13:48;100556.22;;;24.83;34.73
70229;BME280;57617;51.988;5.854;2023-07-02T11:16:26;100573.28;;;24.93;34.97
70229;BME280;57617;51.988;5.854;2023-07-02T11:18:54;100563.41;;;24.84;33.93
70229;BME280;57617;51.988;5.854;2023-07-02T11:21:20;100571.94;;;24.99;34.12
70229;BME280;57617;51.988;5.854;2023-07-02T11:23:45;100573.38;;;25.17;34.41
70229;BME280;57617;51.988;5.854;2023-07-02T11:26:11;100574.69;;;25.32;34.46
70229;BME280;57617;51.988;5.854;2023-07-02T11:28:48;100558.72;;;25.08;32.37
70229;BME280;57617;51.988;5.854;2023-07-02T11:31:13;100583.75;;;25.08;33.76
70229;BME280;57617;51.988;5.854;2023-07-02T11:33:39;100580.28;;;24.99;33.48
70229;BME280;57617;51.988;5.854;2023-07-02T11:36:05;100602.63;;;24.82;32.96
70229;BME280;57617;51.988;5.854;2023-07-02T11:38:34;100590.31;;;24.71;33.38
70229;BME280;57617;51.988;5.854;2023-07-02T11:40:59;100593.16;;;24.83;33.34
70229;BME280;57617;51.988;5.854;2023-07-02T11:43:25;100572.19;;;24.86;33.28
70229;BME280;57617;51.988;5.854;2023-07-02T11:45:51;100577.59;;;25.03;32.82
70229;BME280;57617;51.988;5.854;2023-07-02T11:48:16;100589.09;;;25.13;32.10
70229;BME280;57617;51.988;5.854;2023-07-02T11:50:41;100580.91;;;25.17;32.52
70229;BME280;57617;51.988;5.854;2023-07-02T11:53:07;100581.47;;;25.22;32.54
70229;BME280;57617;51.988;5.854;2023-07-02T11:55:32;100572.41;;;25.34;32.99
70229;BME280;57617;51.988;5.854;2023-07-02T11:57:57;100575.53;;;25.44;32.54
70229;BME280;57617;51.988;5.854;2023-07-02T12:00:23;100579.34;;;25.28;32.33
70229;BME280;57617;51.988;5.854;2023-07-02T12:02:48;100580.66;;;25.22;32.50
70229;BME280;57617;51.988;5.854;2023-07-02T12:05:14;100576.19;;;25.29;32.58
70229;BME280;57617;51.988;5.854;2023-07-02T12:07:39;100599.78;;;25.23;32.21
70229;BME280;57617;51.988;5.854;2023-07-02T12:10:06;100588.38;;;25.37;32.15
70229;BME280;57617;51.988;5.854;2023-07-02T12:12:31;100583.09;;;25.44;31.66
70229;BME280;57617;51.988;5.854;2023-07-02T12:14:56;100583.09;;;25.56;31.27
70229;BME280;57617;51.988;5.854;2023-07-02T12:17:22;100580.53;;;25.51;31.62
70229;BME280;57617;51.988;5.854;2023-07-02T12:19:47;100590.03;;;25.50;31.72
70229;BME280;57617;51.988;5.854;2023-07-02T12:22:12;100584.38;;;25.70;32.15
70229;BME280;57617;51.988;5.854;2023-07-02T12:24:42;100590.88;;;25.74;31.60
70229;BME280;57617;51.988;5.854;2023-07-02T12:27:07;100595.44;;;25.79;31.61
70229;BME280;57617;51.988;5.854;2023-07-02T12:29:33;100596.59;;;25.90;31.39
70229;BME280;57617;51.988;5.854;2023-07-02T12:31:58;100618.16;;;25.93;31.52
70229;BME280;57617;51.988;5.854;2023-07-02T12:34:23;100600.53;;;25.89;30.70
70229;BME280;57617;51.988;5.854;2023-07-02T12:36:48;100618.03;;;25.89;30.86
70229;BME280;57617;51.988;5.854;2023-07-02T12:39:14;100607.84;;;25.81;30.52
70229;BME280;57617;51.988;5.854;2023-07-02T12:41:39;100605.34;;;25.68;31.18
70229;BME280;57617;51.988;5.854;2023-07-02T12:44:04;100600.06;;;25.75;31.17
70229;BME280;57617;51.988;5.854;2023-07-02T12:46:30;100620.81;;;25.89;30.95
70229;BME280;57617;51.988;5.854;2023-07-02T12:48:55;100611.34;;;26.02;30.16
70229;BME280;57617;51.988;5.854;2023-07-02T12:51:20;100606.25;;;25.92;30.11
70229;BME280;57617;51.988;5.854;2023-07-02T12:53:46;100606.06;;;25.77;30.67
70229;BME280;57617;51.988;5.854;2023-07-02T12:56:11;100606.63;;;25.70;30.88
70229;BME280;57617;51.988;5.854;2023-07-02T12:58:37;100599.78;;;25.68;30.86